Ibrahim Rashid

Jefe de ojeadores - Al Jazira
19 Ago 2027
Jueves
Continuar

Personalidad

Adaptabilidad (10) Ambición (13) Controversia (1) Lealtad (5) Presión (7) Profesionalismo (14) Deportividad (15) Temperamento (12)

Perfil

Estilo de dirección Democrático
Licencia Continental B
Determinación 7
Gestión de personas 10
Motivación 6
Disciplina 12
Satisfacción laboral
100%
Fatiga
0%
Cargo Jefe de ojeadores
Salario 63.2K p/s
Contrato 14.03.2029

Rendimiento

Comportamiento Bueno
Efectividad del entrenamiento
43%
Desarrollo de jugadores
55%
Prevención de lesiones
45%
Implementación táctica
35%

Eventos recientes

Evaluó a un jugador ahora
Asistió a una reunión de captación ahora
Recomendó un objetivo de fichaje ahora
Recomendó un objetivo de fichaje ahora
Asistió a una reunión de captación ahora
Evaluó a un jugador 7d atrás
Evaluó a un jugador 7d atrás
Evaluó a un jugador 7d atrás

Actualmente siguiendo

235
Jugador Club Estado Habilidad Confianza Observado Última observación Último voto
Mattia Bortolussi Padova Activo 127 / 125 40% 7 18.08.2027 -
Leandro Suhr Boston River Activo 122 / 113 40% 1 18.08.2027 -
Facundo Castelli Estudiantes Activo 126 / 120 40% 1 18.08.2027 -
Karim El Berkaoui Al Dhafra Activo 128 / 127 40% 4 17.08.2027 Observar
Duvan Rangel La Equidad Activo 137 / 126 40% 2 17.08.2027 -
Bruno Larregui Juventud Activo 124 / 123 40% 2 17.08.2027 -
Simone Canestrelli Pisa Activo 127 / 130 40% 1 16.08.2027 -
Jobson Al Dhafra Perdido 128 / 130 40% 1 16.08.2027 -
Yussif Saidu Zaragoza Activo 131 / 123 40% 1 16.08.2027 -
Jari Vandeputte Cremonese Activo 124 / 135 40% 2 15.08.2027 -
Mohamed Ali Ben Romdhane Al Ahly Activo 127 / 141 40% 4 15.08.2027 -
Gabriel Strefezza Palermo Activo 138 / 135 40% 1 15.08.2027 -
Timo Werner San Jose Earthquakes Activo 136 / 126 40% 1 15.08.2027 -
Thomas Henry Reggiana Activo 120 / 124 40% 1 15.08.2027 -
Maximiliano Gómez Nacional Perdido 133 / 119 40% 1 15.08.2027 -
Juan Cruz de los Santos Nacional Activo 124 / 124 40% 3 14.08.2027 -
Ettore Gliozzi Mantova Activo 127 / 123 40% 4 14.08.2027 -
Facundo Kruspzky Al Wahda Activo 131 / 121 40% 5 11.08.2027 -
Marco Tumminello Benevento Activo 110 / 108 40% 1 11.08.2027 -
John Okoye Ebuka Ittihad Activo 126 / 125 40% 1 10.08.2027 -
Matteo Rover Reggiana Activo 122 / 121 40% 1 10.08.2027 -
Chris Bedia Al Nasr Activo 131 / 129 40% 3 09.08.2027 -
Aaron Collins Milton Keynes Dons Activo 117 / 119 40% 5 09.08.2027 -
Abu Kamara Portsmouth Activo 126 / 124 40% 2 09.08.2027 -
Ryan Hedges Derby County Activo 127 / 128 40% 6 09.08.2027 -
Marezi Portsmouth Activo 125 / 118 40% 1 09.08.2027 -
John Okoye Ebuka Ittihad Perdido 126 / 119 40% 3 05.08.2027 -
Gustavo Del Prete San Lorenzo Activo 117 / 113 40% 1 03.08.2027 -
Korede Osundina Casa Pia Activo 129 / 128 40% 1 03.08.2027 -
Moussa Koné Al-Ra'ed Activo 123 / 119 40% 1 03.08.2027 -
Max Lowe Sheffield Wednesday Activo 117 / 123 40% 3 02.08.2027 -
Andy Rinomhota Reading Activo 122 / 119 40% 1 02.08.2027 -
Mahmoud Bentayg Zamalek Activo 118 / 123 40% 1 02.08.2027 -
Hany Mukhtar Spezia Activo 142 / 138 40% 9 31.07.2027 -
Ewan Henderson Wycombe Wanderers Activo 113 / 124 40% 1 31.07.2027 -
Ronan Hale Gillingham Activo 113 / 121 40% 1 31.07.2027 -
Lamine Guèye Barrow AFC Activo 124 / 110 40% 2 30.07.2027 -
Patrick Maswanganyi Orlando Pirates Activo 116 / 124 40% 1 30.07.2027 -
Farid El Melali CR Belouizdad Activo 132 / 122 40% 12 29.07.2027 -
Davis Keillor-Dunn Wrexham Activo 125 / 124 40% 5 29.07.2027 -
Mduduzi Shabalala Kaizer Chiefs Activo 116 / 117 40% 1 28.07.2027 -
Luca Connell Barnsley Activo 124 / 122 40% 1 28.07.2027 -
Lebohang Maboe Kaizer Chiefs Activo 119 / 107 40% 1 28.07.2027 -
Aaron Morley Wycombe Wanderers Activo 110 / 114 40% 1 27.07.2027 -
Lautaro Vargas Leganés Activo 123 / 128 40% 1 27.07.2027 -
Georges-Kévin Nkoudou Al-Diriyah Activo 134 / 127 40% 3 26.07.2027 -
Aly Abeid JS Kabylie Activo 116 / 115 40% 2 26.07.2027 -
Firas Ben Larbi Sharjah Activo 126 / 127 40% 5 23.07.2027 -
Ihor Krasnopir Polissia Activo 117 / 120 40% 1 23.07.2027 -
Alberto Cerri Cesena Activo 130 / 127 40% 2 22.07.2027 -
Abdulrahman Al-Obud Al-Shabab Activo 121 / 115 40% 5 21.07.2027 -
Isaac Hayden Leyton Orient Perdido 120 / 114 40% 1 21.07.2027 -
Angelo Fulgini Al-Khaleej Activo 135 / 131 40% 9 20.07.2027 -
Oswin Appollis Orlando Pirates Activo 125 / 127 40% 9 20.07.2027 -
Tomislav Štrkalj Tractor Activo 123 / 115 40% 1 20.07.2027 -
Alan Cantero Alianza Lima Activo 124 / 124 40% 1 20.07.2027 -
Marwan Ateya Al Ahly Activo 130 / 128 40% 4 18.07.2027 -
Kike Pérez Venezia Activo 130 / 124 40% 1 18.07.2027 -
Julio Alonso Huesca Activo 122 / 127 40% 3 16.07.2027 -
Mandla Erasmus SuperSport United Activo 126 / 130 40% 1 16.07.2027 -
Dylan Levitt Leyton Orient Activo 121 / 114 40% 1 13.07.2027 -
Karlan Grant West Bromwich Albion Activo 128 / 121 40% 1 11.07.2027 -
Aschraf El Mahdioui Al-Taawoun Activo 128 / 133 40% 8 08.07.2027 -
Zak Swanson Bradford City Activo 122 / 114 40% 1 08.07.2027 -
Léo Gomes Sheffield Wednesday Activo 114 / 111 40% 1 08.07.2027 -
Juan Manuel Boselli Krasnodar Activo 123 / 118 40% 7 07.07.2027 -
Christopher Bonsu Baah Al-Qadisiyah Activo 133 / 127 40% 4 07.07.2027 -
Idris El Mizouni Leyton Orient Activo 114 / 121 40% 1 07.07.2027 -
Simone Mazzocchi Cosenza Activo 126 / 115 40% 1 07.07.2027 -
Aiman Yahya Al-Nassr Activo 122 / 122 40% 3 05.07.2027 -
Walid Omar Al Shaab Perdido 118 / 125 76% 1 05.07.2027 Aprobar
Kaku Al Ain Activo 124 / 125 40% 5 04.07.2027 -
Ahmed Fatouh Zamalek Activo 125 / 129 40% 1 04.07.2027 -
Ryan Trevitt Cambridge United Activo 110 / 117 40% 1 04.07.2027 -
Peter Olayinka Al-Wehda Activo 124 / 125 40% 18 01.07.2027 -
Alejo Cruz Juventud Activo 131 / 121 40% 2 01.07.2027 -
Karim El Berkaoui Al Dhafra Perdido 123 / 121 40% 1 01.07.2027 Observar
Dmitry Vorobjov Krasnodar Activo 120 / 121 40% 9 30.06.2027 -
Moussa Dembélé CR Belouizdad Activo 127 / 137 40% 1 29.06.2027 -
Kévin Denkey FC Cincinnati Activo 120 / 134 40% 1 29.06.2027 -
Josh Brownhill Al-Shabab Activo 127 / 134 40% 9 28.06.2027 -
Williams Manyama SuperSport United Activo 110 / 126 40% 3 28.06.2027 -
Mohamed Hany Al Ahly Perdido 131 / 121 40% 1 28.06.2027 -
Samuel Kalu Botev Plovdiv Activo 116 / 122 40% 4 26.06.2027 -
Mohamed Kanno ES Setif Perdido 130 / 125 40% 1 26.06.2027 Observar
Bjarki Bjarkason Südtirol Activo 117 / 108 40% 1 26.06.2027 -
Jérémy Le Douaron Palermo Activo 133 / 121 40% 1 26.06.2027 -
Perry Ng Cardiff City Activo 127 / 122 40% 1 22.06.2027 -
Valentino Lazaro Al Ain Activo 145 / 139 40% 5 21.06.2027 -
Romano Floriani Mussolini Avellino Activo 123 / 125 40% 3 21.06.2027 -
Harvey White Stevenage Activo 114 / 111 40% 1 21.06.2027 -
Jaïro Riedewald Sheffield United Activo 116 / 130 40% 1 21.06.2027 -
Álex Centelles Levski Activo 136 / 124 40% 1 20.06.2027 -
Sondre Tronstad Blackburn Rovers Activo 125 / 130 40% 1 20.06.2027 -
Marouan Azarkan Al Nasr Activo 127 / 122 40% 10 18.06.2027 -
Caolan Boyd-Munce Wycombe Wanderers Activo 116 / 120 40% 2 18.06.2027 -
Massimiliano Mangraviti Cesena Activo 117 / 127 40% 1 15.06.2027 -
Ryan Wintle Milton Keynes Dons Activo 109 / 119 40% 1 09.06.2027 -
Ibrahim Bayesh Al Dhafra Perdido 127 / 119 76% 1 02.06.2027 -
Kyrylo Fesiun Shakhtar Activo 126 / 131 40% 1 28.05.2027 -
George Wickens Lincoln City Activo 121 / 120 40% 1 27.05.2027 -
Oliver Dovin Coventry City Activo 128 / 130 40% 1 27.05.2027 -
Josh Vickers Rotherham United Activo 105 / 120 40% 1 27.05.2027 -
Gianmarco Vannucchi Benevento Activo 114 / 124 40% 2 26.05.2027 -
Omri Glazer Maccabi Haifa Activo 132 / 130 40% 1 26.05.2027 -
Florian Grillitsch Frosinone Activo 143 / 138 40% 1 25.05.2027 Más información
Georges-Kévin Nkoudou Al-Diriyah Perdido 125 / 128 40% 9 23.05.2027 -
Mohau Nkota Al-Ettifaq Activo 116 / 125 40% 5 21.05.2027 -
Mohamed Kanno ES Setif Perdido 125 / 133 40% 6 19.05.2027 Observar
Samuele Perisan Audace Cerignola Activo 114 / 115 40% 1 18.05.2027 -
Riccardo Gagno Vicenza Activo 123 / 115 40% 1 18.05.2027 -
Bruno Varela Najran Activo 131 / 123 40% 2 15.05.2027 -
Stefano Gori Union Brescia Activo 127 / 120 40% 3 15.05.2027 -
Geovanni Banguera Deportivo Pasto Activo 128 / 125 40% 1 15.05.2027 -
Christian Walton Ipswich Town Activo 128 / 134 40% 5 14.05.2027 -
Samu Maccabi Netanya Activo 110 / 106 40% 1 14.05.2027 -
Lucas Bruera Carabobo Activo 132 / 122 40% 1 14.05.2027 -
Hugo Moura Al-Fayha Activo 128 / 127 40% 12 11.05.2027 -
Roberto Ramírez Godoy Cruz Activo 127 / 118 40% 1 11.05.2027 -
Josh Murphy Portsmouth Activo 124 / 115 40% 2 09.05.2027 -
Simone Scuffet Pisa Activo 124 / 138 40% 5 08.05.2027 -
Alexandr Koryakin Krasnodar Activo 118 / 120 40% 2 08.05.2027 -
Assaf Tzur Hapoel Tel Aviv Activo 123 / 112 40% 1 08.05.2027 -
Wladimiro Falcone Lecce Activo 132 / 133 40% 3 04.05.2027 -
Óscar Al-Diriyah Activo 128 / 132 40% 5 02.05.2027 -
Zack Steffen Spartak Moscow Activo 132 / 140 40% 4 02.05.2027 -
Santiago Silva CFR Cluj Activo 131 / 128 40% 1 02.05.2027 -
Jaime Seoane Al-Faisaly Activo 136 / 128 40% 2 30.04.2027 -
Lewis Morgan SuperSport United Activo 136 / 128 40% 5 27.04.2027 -
Joel Pereira Reading Activo 113 / 109 40% 1 27.04.2027 -
Murphy Cooper Plymouth Argyle Activo 120 / 120 40% 2 26.04.2027 -
Khalid Al-Ghannam Al-Ettifaq Activo 115 / 117 40% 3 24.04.2027 -
Gaetano Castrovilli Cesena Activo 124 / 119 40% 1 23.04.2027 -
Karim El Berkaoui Al Dhafra Perdido 126 / 116 40% 8 20.04.2027 Observar
Otávio Al-Qadisiyah Rechazado 138 / 135 40% 14 19.04.2027 Rechazar
Matías Palacios Al Ain Activo 126 / 139 40% 2 19.04.2027 -
Daniel Iversen Preston Activo 132 / 121 40% 1 17.04.2027 -
John Yeboah Venezia Activo 130 / 120 40% 1 16.04.2027 -
Saviour Godwin Baniyas Activo 122 / 118 40% 9 14.04.2027 -
Tshepang Moremi Orlando Pirates Activo 124 / 113 40% 1 14.04.2027 -
Mahmoud Khalfan Al Shabab Activo 126 / 117 40% 2 12.04.2027 -
Maílson Al-Taawoun Activo 131 / 128 40% 1 12.04.2027 -
Renato Tapia Al Wasl Activo 132 / 130 40% 3 08.04.2027 -
Jordan Lotomba Bloemfontein Celtic Activo 129 / 115 40% 3 08.04.2027 -
Turki Al-Ammar Al-Qadisiyah Activo 126 / 113 40% 3 07.04.2027 -
Lorenzo Palmisani Frosinone Activo 123 / 126 40% 3 04.04.2027 -
Liam Roberts Mansfield Town Activo 118 / 115 40% 1 04.04.2027 -
Vladan Kovačević Norwich City Activo 114 / 111 40% 1 03.04.2027 -
Bernat Guiu Virtus Entella Activo 121 / 112 40% 1 31.03.2027 -
Miguel Crespo Al-Khaleej Activo 122 / 120 40% 1 26.03.2027 -
Michele Cerofolini Bari Activo 136 / 131 40% 2 24.03.2027 -
Max O'Leary West Bromwich Albion Activo 125 / 131 40% 1 24.03.2027 -
Sipho Chaine Orlando Pirates Activo 120 / 109 40% 1 21.03.2027 -
Mohamed Yaqoob Al Shabab Activo 118 / 117 40% 2 16.03.2027 -
Kevin Agudelo Al Nasr Activo 115 / 115 40% 2 10.03.2027 -
Alessio Cragno Südtirol Activo 120 / 123 40% 2 09.03.2027 -
Martin Zlomislić Qarabag Activo 123 / 110 40% 1 09.03.2027 -
Musab Al-Juwayr Al-Qadisiyah Activo 126 / 138 40% 4 05.03.2027 -
Pedro Rebocho Al-Khaleej Activo 115 / 123 40% 2 05.03.2027 -
Marc-Aurèle Caillard Debrecen Activo 111 / 117 40% 1 04.03.2027 -
Maksim Kireev KV Mechelen Activo 127 / 124 40% 1 21.02.2027 -
Manuel Benson Maccabi Haifa Activo 126 / 128 40% 1 19.02.2027 -
Muhannad Al-Shanqiti Al-Ittihad Activo 116 / 122 40% 1 18.02.2027 -
Everton Bala Levski Activo 120 / 129 40% 4 17.02.2027 -
Marquinhos APOEL Activo 139 / 120 40% 3 15.02.2027 -
Sipho Mbule Al Wahda Activo 113 / 116 40% 2 07.02.2027 -
Álvaro Medrán Al-Ettifaq Activo 130 / 123 40% 4 03.02.2027 -
Tiago Freitas Benfica Activo 108 / 109 40% 3 22.01.2027 -
Mpho Khethang AS Police Activo 76 / 89 40% 1 22.01.2027 -
Ronwen Phiri Platinum Stars Activo 96 / 95 40% 1 21.01.2027 -
Darryl Bakola Padova Activo 110 / 115 40% 1 21.01.2027 -
Abubacarr Sedi Kinteh Al-Hilal Activo 115 / 130 40% 1 20.01.2027 -
Keagan Phiri Platinum Stars Activo 92 / 108 40% 2 19.01.2027 -
Hlompho Lorch Ajax Cape Town Activo 90 / 104 40% 1 19.01.2027 -
Zane Albarus Cambridge United Activo 89 / 104 40% 1 18.01.2027 -
Zaïd BafdilI Sporting CP Activo 84 / 110 40% 1 18.01.2027 -
Juan Giménez Celta Activo 111 / 119 40% 2 12.01.2027 -
Surprise Manthosi Polokwane City Activo 90 / 105 40% 1 12.01.2027 -
Matheus Davó Maccabi Netanya Activo 128 / 116 40% 2 09.01.2027 -
Mamadou Sylla Al Ahly Activo 130 / 116 40% 1 09.01.2027 -
Denzel Jubitana Neftchi Activo 116 / 119 40% 1 07.01.2027 -
Mykola Kukharevych Slovan Bratislava Activo 125 / 118 40% 1 07.01.2027 -
Cédric Don Maccabi Haifa Activo 123 / 130 40% 1 06.01.2027 -
Ivan Sergeev Dinamo Moscow Activo 135 / 127 40% 10 03.01.2027 -
Žiga Frelih NK Celje Activo 108 / 116 40% 1 03.01.2027 -
Maxim Borisko CSKA Moscow Activo 118 / 124 40% 1 03.01.2027 -
Caio Lucas Al Ain Activo 132 / 126 40% 20 29.12.2026 -
Omar Khribin Al Wahda Activo 138 / 135 40% 15 28.12.2026 Observar
Dominik Takáč Slovan Bratislava Activo 126 / 135 40% 1 28.12.2026 -
Brandon Petersen Kaizer Chiefs Activo 108 / 122 40% 1 26.12.2026 -
Fernando Bragantino Activo 122 / 126 40% 2 21.12.2026 -
Wilfried Kanga Al-Fateh Activo 118 / 122 40% 7 18.12.2026 -
Dominik Fiola Haladas Activo 128 / 120 40% 2 17.12.2026 -
Maksim Samorodov Akhmat Grozny Activo 121 / 116 40% 3 13.12.2026 -
Josh Wynder Benfica Activo 105 / 114 40% 1 10.12.2026 -
Nikola Vasilj Al-Diriyah Activo 138 / 138 40% 3 03.12.2026 -
Egas Cacintura Spartak Moscow Activo 117 / 121 40% 6 03.12.2026 -
Mirlind Daku Spartak Moscow Activo 133 / 136 40% 6 28.11.2026 -
Ramón Mierez Al Nasr Activo 119 / 120 40% 6 27.11.2026 -
Mahmoud Al Hashmi Al Shabab Activo 116 / 114 40% 1 27.11.2026 -
Jonathan Levi Ferencvaros Activo 125 / 120 40% 1 26.11.2026 -
João Muniz Sporting CP Activo 118 / 123 40% 3 25.11.2026 -
Krešimir Radoš HNK Gorica Activo 88 / 118 40% 1 25.11.2026 -
Jovon Makama Norwich City Activo 124 / 129 40% 2 22.11.2026 -
Isaac Kyereh Liberty Professionals Activo 104 / 118 40% 1 22.11.2026 -
Andreas Gruber DAC Dunajska Streda Activo 122 / 117 40% 2 19.11.2026 -
Bongani Modiba Black Aces Activo 110 / 128 40% 1 16.11.2026 -
Arthur Gomes Dinamo Moscow Activo 114 / 121 40% 3 12.11.2026 -
Leandro Godoy CSKA Sofia Activo 117 / 113 40% 3 23.10.2026 -
Youssef Wael Zamalek Activo 91 / 83 40% 1 19.10.2026 -
Sam Lammers PSV Activo 115 / 129 40% 4 18.10.2026 -
Fedor Lapoukhov CSKA Sofia Activo 126 / 113 40% 2 15.10.2026 -
Marin Petkov Al-Taawoun Activo 115 / 121 40% 1 06.10.2026 -
Valentin Atangana Al-Ahli Activo 125 / 129 40% 1 01.10.2026 -
Lukáš Haraslín Al-Fateh Activo 136 / 142 40% 1 27.09.2026 -
Yaroslav Gladyshev Dinamo Moscow Activo 111 / 117 40% 1 25.09.2026 -
Alexandr Chernikov Krasnodar Activo 131 / 139 40% 1 17.09.2026 -
Kristian Eriksen Molde Activo 130 / 116 40% 6 13.09.2026 -
Francisco González Metilli Belgrano Activo 117 / 119 40% 2 12.09.2026 -
Rahim Ibrahim Slovan Bratislava Activo 130 / 123 40% 1 07.09.2026 -
Mojmír Chytil NK Maribor Activo 126 / 130 40% 5 26.08.2026 -
Hamad Hassan Al Shabab Perdido 117 / 120 76% 1 24.08.2026 Aprobar
Rok Skubic NK Domzale Activo 115 / 130 40% 1 21.08.2026 -
Florin Tănase Omonoia Activo 118 / 122 40% 3 20.08.2026 -
Luka Kurtovic NK Domzale Activo 118 / 127 40% 1 20.08.2026 -
Maximiliano Duarte Independiente Activo 87 / 118 40% 1 19.08.2026 -
Charles Pickel Sharjah Activo 130 / 134 40% 2 13.08.2026 -
Ismail Abdulrahman Al Shaab Activo 119 / 128 76% 1 10.08.2026 Aprobar
Mohamed Hassan Al Shaab Activo 136 / 127 40% 1 10.08.2026 -
Leopold Zingerle RB Leipzig Activo 109 / 115 40% 1 07.08.2026 -
Lucas Souto Defensa y Justicia Activo 129 / 126 40% 1 06.08.2026 -
Mohanad Ali Dibba Activo 105 / 104 76% 1 03.08.2026 Aprobar
Marius Marin Al Nasr Activo 133 / 130 40% 1 03.08.2026 -
Franco Cristaldo Talleres Activo 117 / 116 40% 1 03.08.2026 -
Ernest Muçi Trabzonspor Activo 123 / 129 40% 1 01.08.2026 -